Weather at Namibe Airport

Public forecast

Using degrees Celsius for public forecast. Weather courtesy of forecast.io.

Current aviation weather report (METAR) for Namibe Airport

Report is more than 2 hours old.

Retrieved 2020/10/22 15:00 UTC (2 hours ago):

FNMO 221500Z 35010KT 9999 BKN014 25/20 Q1012

Aviation forecast (TAF) for Namibe Airport

Retrieved 2020/10/22 12:00 UTC (5 hours ago):

TAF FNMO 221100Z 2212/2224 28010KT 9999 SCT010 BKN020 BECMG 2213/2215 CAVOK BECMG 2222/2224 21005KT